sensor_id;sensor_type;location;lat;lon;timestamp;pressure;altitude;pressure_sealevel;temperature;humidity
27425;BME280;15244;49.088;11.886;2022-08-21T00:03:01;95849.53;;;21.34;58.68
27425;BME280;15244;49.088;11.886;2022-08-21T00:08:06;95852.13;;;21.28;59.02
27425;BME280;15244;49.088;11.886;2022-08-21T00:13:10;95852.25;;;21.25;59.02
27425;BME280;15244;49.088;11.886;2022-08-21T00:18:12;95847.28;;;21.19;59.02
27425;BME280;15244;49.088;11.886;2022-08-21T00:23:15;95844.63;;;21.16;59.09
27425;BME280;15244;49.088;11.886;2022-08-21T00:28:18;95838.00;;;21.13;59.11
27425;BME280;15244;49.088;11.886;2022-08-21T00:33:21;95829.22;;;21.15;58.95
27425;BME280;15244;49.088;11.886;2022-08-21T00:38:23;95828.47;;;21.14;58.99
27425;BME280;15244;49.088;11.886;2022-08-21T00:43:29;95835.53;;;21.15;58.87
27425;BME280;15244;49.088;11.886;2022-08-21T00:48:32;95834.00;;;21.14;59.22
27425;BME280;15244;49.088;11.886;2022-08-21T00:53:37;95834.00;;;21.14;58.94
27425;BME280;15244;49.088;11.886;2022-08-21T00:58:41;95831.25;;;21.14;58.88
27425;BME280;15244;49.088;11.886;2022-08-21T01:03:47;95824.03;;;21.17;58.81
27425;BME280;15244;49.088;11.886;2022-08-21T01:08:50;95820.78;;;21.18;58.92
27425;BME280;15244;49.088;11.886;2022-08-21T01:13:53;95818.78;;;21.19;58.96
27425;BME280;15244;49.088;11.886;2022-08-21T01:18:56;95808.47;;;21.19;58.58
27425;BME280;15244;49.088;11.886;2022-08-21T01:23:58;95821.88;;;21.21;58.49
27425;BME280;15244;49.088;11.886;2022-08-21T01:29:09;95816.31;;;21.21;58.66
27425;BME280;15244;49.088;11.886;2022-08-21T01:34:14;95809.25;;;21.20;58.42
27425;BME280;15244;49.088;11.886;2022-08-21T01:39:17;95818.78;;;21.19;58.52
27425;BME280;15244;49.088;11.886;2022-08-21T01:44:23;95824.78;;;21.17;58.69
27425;BME280;15244;49.088;11.886;2022-08-21T01:49:26;95822.00;;;21.17;58.58
27425;BME280;15244;49.088;11.886;2022-08-21T01:54:28;95816.13;;;21.15;58.12
27425;BME280;15244;49.088;11.886;2022-08-21T01:59:31;95810.25;;;21.13;58.26
27425;BME280;15244;49.088;11.886;2022-08-21T02:04:34;95815.19;;;21.09;57.96
27425;BME280;15244;49.088;11.886;2022-08-21T02:09:37;95809.75;;;21.06;57.72
27425;BME280;15244;49.088;11.886;2022-08-21T02:14:40;95803.56;;;21.02;57.35
27425;BME280;15244;49.088;11.886;2022-08-21T02:19:42;95800.47;;;20.99;57.50
27425;BME280;15244;49.088;11.886;2022-08-21T02:24:46;95800.59;;;20.96;57.76
27425;BME280;15244;49.088;11.886;2022-08-21T02:29:56;95801.50;;;20.93;57.49
27425;BME280;15244;49.088;11.886;2022-08-21T02:34:59;95801.16;;;20.91;57.70
27425;BME280;15244;49.088;11.886;2022-08-21T02:40:02;95795.75;;;20.87;57.58
27425;BME280;15244;49.088;11.886;2022-08-21T02:45:05;95807.41;;;20.82;57.33
27425;BME280;15244;49.088;11.886;2022-08-21T02:50:07;95812.28;;;20.78;57.03
27425;BME280;15244;49.088;11.886;2022-08-21T02:55:10;95808.88;;;20.74;57.08
27425;BME280;15244;49.088;11.886;2022-08-21T03:00:15;95812.66;;;20.67;56.80
27425;BME280;15244;49.088;11.886;2022-08-21T03:05:18;95801.38;;;20.62;57.22
27425;BME280;15244;49.088;11.886;2022-08-21T03:10:21;95803.97;;;20.56;56.79
27425;BME280;15244;49.088;11.886;2022-08-21T03:15:24;95806.03;;;20.52;57.20
27425;BME280;15244;49.088;11.886;2022-08-21T03:20:29;95804.16;;;20.49;56.93
27425;BME280;15244;49.088;11.886;2022-08-21T03:25:34;95816.09;;;20.46;57.24
27425;BME280;15244;49.088;11.886;2022-08-21T03:30:43;95816.38;;;20.39;57.22
27425;BME280;15244;49.088;11.886;2022-08-21T03:35:54;95812.94;;;20.34;57.18
27425;BME280;15244;49.088;11.886;2022-08-21T03:40:59;95820.56;;;20.30;57.44
27425;BME280;15244;49.088;11.886;2022-08-21T03:46:03;95826.56;;;20.29;57.94
27425;BME280;15244;49.088;11.886;2022-08-21T03:51:06;95823.47;;;20.27;57.87
27425;BME280;15244;49.088;11.886;2022-08-21T03:56:09;95817.59;;;20.25;58.02
27425;BME280;15244;49.088;11.886;2022-08-21T04:01:11;95825.13;;;20.24;58.28
27425;BME280;15244;49.088;11.886;2022-08-21T04:06:14;95820.81;;;20.23;58.43
27425;BME280;15244;49.088;11.886;2022-08-21T04:11:16;95829.13;;;20.23;58.47
27425;BME280;15244;49.088;11.886;2022-08-21T04:16:21;95833.09;;;20.22;58.83
27425;BME280;15244;49.088;11.886;2022-08-21T04:21:23;95835.09;;;20.22;59.09
27425;BME280;15244;49.088;11.886;2022-08-21T04:26:27;95835.53;;;20.20;58.96
27425;BME280;15244;49.088;11.886;2022-08-21T04:31:30;95846.59;;;20.20;59.26
27425;BME280;15244;49.088;11.886;2022-08-21T04:36:33;95847.84;;;20.19;59.13
27425;BME280;15244;49.088;11.886;2022-08-21T04:41:35;95845.50;;;20.18;59.19
27425;BME280;15244;49.088;11.886;2022-08-21T04:46:38;95846.72;;;20.17;59.25
27425;BME280;15244;49.088;11.886;2022-08-21T04:51:41;95842.72;;;20.18;59.25
27425;BME280;15244;49.088;11.886;2022-08-21T04:57:15;95853.03;;;20.17;59.18
27425;BME280;15244;49.088;11.886;2022-08-21T05:02:19;95857.81;;;20.17;59.23
27425;BME280;15244;49.088;11.886;2022-08-21T05:07:28;95860.22;;;20.14;59.09
27425;BME280;15244;49.088;11.886;2022-08-21T05:12:44;95861.34;;;20.17;59.32
27425;BME280;15244;49.088;11.886;2022-08-21T05:17:47;95864.00;;;20.21;59.42
27425;BME280;15244;49.088;11.886;2022-08-21T05:23:07;95866.31;;;20.22;59.37
27425;BME280;15244;49.088;11.886;2022-08-21T05:28:10;95868.75;;;20.20;59.34
27425;BME280;15244;49.088;11.886;2022-08-21T05:33:12;95872.19;;;20.24;59.39
27425;BME280;15244;49.088;11.886;2022-08-21T05:38:14;95880.63;;;20.21;59.22
27425;BME280;15244;49.088;11.886;2022-08-21T05:43:19;95887.81;;;20.18;59.31
27425;BME280;15244;49.088;11.886;2022-08-21T05:48:25;95889.34;;;20.19;59.14
27425;BME280;15244;49.088;11.886;2022-08-21T05:53:28;95882.94;;;20.22;59.16
27425;BME280;15244;49.088;11.886;2022-08-21T05:58:32;95891.13;;;20.26;59.19
27425;BME280;15244;49.088;11.886;2022-08-21T06:03:38;95878.72;;;20.30;58.98
27425;BME280;15244;49.088;11.886;2022-08-21T06:08:41;95873.84;;;20.34;59.10
27425;BME280;15244;49.088;11.886;2022-08-21T06:13:42;95881.59;;;20.40;59.06
27425;BME280;15244;49.088;11.886;2022-08-21T06:18:45;95883.47;;;20.43;59.36
27425;BME280;15244;49.088;11.886;2022-08-21T06:23:47;95882.69;;;20.42;59.00
27425;BME280;15244;49.088;11.886;2022-08-21T06:28:50;95882.38;;;20.40;58.98
27425;BME280;15244;49.088;11.886;2022-08-21T06:33:54;95887.91;;;20.40;59.25
27425;BME280;15244;49.088;11.886;2022-08-21T06:38:56;95888.34;;;20.39;59.33
27425;BME280;15244;49.088;11.886;2022-08-21T06:43:58;95888.22;;;20.42;59.30
27425;BME280;15244;49.088;11.886;2022-08-21T06:49:01;95893.56;;;20.49;59.66
27425;BME280;15244;49.088;11.886;2022-08-21T06:54:07;95886.59;;;20.58;59.51
27425;BME280;15244;49.088;11.886;2022-08-21T06:59:13;95885.25;;;20.62;59.29
27425;BME280;15244;49.088;11.886;2022-08-21T07:04:15;95882.47;;;20.62;59.28
27425;BME280;15244;49.088;11.886;2022-08-21T07:09:17;95876.03;;;20.65;59.35
27425;BME280;15244;49.088;11.886;2022-08-21T07:14:25;95871.38;;;20.75;59.46
27425;BME280;15244;49.088;11.886;2022-08-21T07:19:27;95880.88;;;20.87;59.51
27425;BME280;15244;49.088;11.886;2022-08-21T07:24:29;95880.53;;;20.97;59.35
27425;BME280;15244;49.088;11.886;2022-08-21T07:29:32;95883.16;;;21.01;59.46
27425;BME280;15244;49.088;11.886;2022-08-21T07:34:34;95883.38;;;21.07;59.35
27425;BME280;15244;49.088;11.886;2022-08-21T07:39:36;95880.81;;;21.12;59.25
27425;BME280;15244;49.088;11.886;2022-08-21T07:44:37;95872.53;;;21.21;59.06
27425;BME280;15244;49.088;11.886;2022-08-21T07:49:39;95882.63;;;21.28;58.89
27425;BME280;15244;49.088;11.886;2022-08-21T07:54:41;95887.59;;;21.33;58.99
27425;BME280;15244;49.088;11.886;2022-08-21T07:59:45;95880.50;;;21.32;58.71
27425;BME280;15244;49.088;11.886;2022-08-21T08:04:47;95880.38;;;21.36;59.00
27425;BME280;15244;49.088;11.886;2022-08-21T08:09:52;95883.56;;;21.34;58.63
27425;BME280;15244;49.088;11.886;2022-08-21T08:14:57;95889.47;;;21.36;58.72
27425;BME280;15244;49.088;11.886;2022-08-21T08:20:01;95893.69;;;21.41;59.05
27425;BME280;15244;49.088;11.886;2022-08-21T08:25:06;95899.22;;;21.41;58.97
27425;BME280;15244;49.088;11.886;2022-08-21T08:30:12;95892.34;;;21.46;58.89
27425;BME280;15244;49.088;11.886;2022-08-21T08:35:15;95892.72;;;21.57;58.95
27425;BME280;15244;49.088;11.886;2022-08-21T08:46:03;95901.19;;;21.75;58.50
27425;BME280;15244;49.088;11.886;2022-08-21T08:51:10;95891.69;;;21.85;58.25
27425;BME280;15244;49.088;11.886;2022-08-21T08:56:18;95886.81;;;21.99;58.32
27425;BME280;15244;49.088;11.886;2022-08-21T09:01:24;95890.59;;;22.14;57.89
27425;BME280;15244;49.088;11.886;2022-08-21T09:06:57;95886.81;;;22.30;57.88
27425;BME280;15244;49.088;11.886;2022-08-21T09:12:04;95887.34;;;22.47;57.55
27425;BME280;15244;49.088;11.886;2022-08-21T09:17:29;95876.56;;;22.58;57.45
27425;BME280;15244;49.088;11.886;2022-08-21T09:23:06;95884.31;;;22.72;57.18
27425;BME280;15244;49.088;11.886;2022-08-21T09:28:13;95874.28;;;22.75;56.59
27425;BME280;15244;49.088;11.886;2022-08-21T09:33:20;95877.38;;;22.86;56.59
27425;BME280;15244;49.088;11.886;2022-08-21T09:38:33;95883.47;;;23.03;57.11
27425;BME280;15244;49.088;11.886;2022-08-21T09:43:37;95877.31;;;23.18;57.06
27425;BME280;15244;49.088;11.886;2022-08-21T09:48:46;95879.94;;;23.30;57.38
27425;BME280;15244;49.088;11.886;2022-08-21T09:53:56;95885.78;;;23.42;57.30
27425;BME280;15244;49.088;11.886;2022-08-21T09:59:18;95886.88;;;23.53;57.05
27425;BME280;15244;49.088;11.886;2022-08-21T10:04:29;95881.78;;;23.61;56.81
27425;BME280;15244;49.088;11.886;2022-08-21T10:09:32;95884.22;;;23.77;57.29
27425;BME280;15244;49.088;11.886;2022-08-21T10:20:07;95872.69;;;24.21;57.09
27425;BME280;15244;49.088;11.886;2022-08-21T10:25:21;95878.00;;;24.43;56.80
27425;BME280;15244;49.088;11.886;2022-08-21T10:41:16;95864.75;;;24.62;54.96
27425;BME280;15244;49.088;11.886;2022-08-21T10:51:33;95868.28;;;24.72;54.62
27425;BME280;15244;49.088;11.886;2022-08-21T10:56:43;95862.81;;;24.78;54.31
27425;BME280;15244;49.088;11.886;2022-08-21T11:01:50;95866.78;;;24.86;54.12
27425;BME280;15244;49.088;11.886;2022-08-21T11:07:04;95860.75;;;24.87;53.61
27425;BME280;15244;49.088;11.886;2022-08-21T11:12:27;95858.66;;;24.97;53.79
27425;BME280;15244;49.088;11.886;2022-08-21T11:17:40;95852.25;;;25.06;53.54
27425;BME280;15244;49.088;11.886;2022-08-21T11:28:01;95852.81;;;25.34;53.54
27425;BME280;15244;49.088;11.886;2022-08-21T11:38:41;95845.91;;;25.59;52.94
27425;BME280;15244;49.088;11.886;2022-08-21T11:43:49;95848.91;;;25.70;52.15
27425;BME280;15244;49.088;11.886;2022-08-21T11:49:27;95844.00;;;25.65;51.72
27425;BME280;15244;49.088;11.886;2022-08-21T11:54:38;95827.44;;;25.77;51.96
27425;BME280;15244;49.088;11.886;2022-08-21T12:05:45;95821.78;;;26.01;51.89
27425;BME280;15244;49.088;11.886;2022-08-21T12:11:08;95835.63;;;26.10;50.15
27425;BME280;15244;49.088;11.886;2022-08-21T12:16:15;95820.03;;;26.03;48.62
27425;BME280;15244;49.088;11.886;2022-08-21T12:21:29;95819.84;;;25.92;49.88
27425;BME280;15244;49.088;11.886;2022-08-21T12:26:38;95815.78;;;26.08;49.57
27425;BME280;15244;49.088;11.886;2022-08-21T12:31:55;95816.34;;;26.12;48.54
27425;BME280;15244;49.088;11.886;2022-08-21T12:37:09;95810.16;;;26.23;49.49
27425;BME280;15244;49.088;11.886;2022-08-21T12:42:23;95800.22;;;26.36;48.98
27425;BME280;15244;49.088;11.886;2022-08-21T12:47:33;95802.00;;;26.54;48.89
27425;BME280;15244;49.088;11.886;2022-08-21T12:52:41;95784.88;;;26.67;48.31
27425;BME280;15244;49.088;11.886;2022-08-21T12:57:47;95777.06;;;26.71;46.51
27425;BME280;15244;49.088;11.886;2022-08-21T13:02:52;95774.13;;;26.80;46.63
27425;BME280;15244;49.088;11.886;2022-08-21T13:07:56;95770.84;;;26.82;45.67
27425;BME280;15244;49.088;11.886;2022-08-21T13:13:00;95769.84;;;26.85;45.28
27425;BME280;15244;49.088;11.886;2022-08-21T13:18:25;95769.16;;;26.90;45.18
27425;BME280;15244;49.088;11.886;2022-08-21T13:23:31;95770.75;;;26.97;44.88
27425;BME280;15244;49.088;11.886;2022-08-21T13:28:34;95762.56;;;26.93;44.33
27425;BME280;15244;49.088;11.886;2022-08-21T13:33:39;95763.91;;;26.98;43.97
27425;BME280;15244;49.088;11.886;2022-08-21T13:38:42;95751.75;;;27.07;43.46
27425;BME280;15244;49.088;11.886;2022-08-21T13:43:56;95749.81;;;27.13;43.36
27425;BME280;15244;49.088;11.886;2022-08-21T13:49:00;95738.97;;;27.20;43.42
27425;BME280;15244;49.088;11.886;2022-08-21T13:54:23;95740.31;;;27.25;43.03
27425;BME280;15244;49.088;11.886;2022-08-21T13:59:34;95736.66;;;27.19;41.67
27425;BME280;15244;49.088;11.886;2022-08-21T14:04:41;95744.94;;;27.08;41.93
27425;BME280;15244;49.088;11.886;2022-08-21T14:09:54;95735.97;;;27.03;41.32
27425;BME280;15244;49.088;11.886;2022-08-21T14:14:57;95734.97;;;27.07;41.03
27425;BME280;15244;49.088;11.886;2022-08-21T14:20:04;95737.94;;;27.18;41.28
27425;BME280;15244;49.088;11.886;2022-08-21T14:25:13;95734.50;;;27.34;41.00
27425;BME280;15244;49.088;11.886;2022-08-21T14:30:32;95727.22;;;27.42;40.19
27425;BME280;15244;49.088;11.886;2022-08-21T14:35:35;95737.97;;;27.50;40.06
27425;BME280;15244;49.088;11.886;2022-08-21T14:40:41;95727.34;;;27.59;39.91
27425;BME280;15244;49.088;11.886;2022-08-21T14:45:43;95728.47;;;27.67;39.32
27425;BME280;15244;49.088;11.886;2022-08-21T14:50:45;95720.00;;;27.62;37.84
27425;BME280;15244;49.088;11.886;2022-08-21T14:55:49;95724.28;;;27.57;38.16
27425;BME280;15244;49.088;11.886;2022-08-21T15:01:07;95716.16;;;27.59;37.89
27425;BME280;15244;49.088;11.886;2022-08-21T15:06:10;95707.34;;;27.72;37.06
27425;BME280;15244;49.088;11.886;2022-08-21T15:11:16;95705.16;;;27.82;35.97
27425;BME280;15244;49.088;11.886;2022-08-21T15:16:39;95701.63;;;27.87;35.82
27425;BME280;15244;49.088;11.886;2022-08-21T15:21:42;95704.22;;;27.96;33.22
27425;BME280;15244;49.088;11.886;2022-08-21T15:26:48;95702.50;;;28.04;33.78
27425;BME280;15244;49.088;11.886;2022-08-21T15:31:56;95706.75;;;27.94;31.45
27425;BME280;15244;49.088;11.886;2022-08-21T15:36:59;95705.75;;;27.97;31.11
27425;BME280;15244;49.088;11.886;2022-08-21T15:42:04;95704.34;;;28.13;32.33
27425;BME280;15244;49.088;11.886;2022-08-21T15:47:19;95701.88;;;28.32;31.96
27425;BME280;15244;49.088;11.886;2022-08-21T15:52:22;95690.47;;;28.41;32.51
27425;BME280;15244;49.088;11.886;2022-08-21T15:57:25;95689.78;;;28.58;31.42
27425;BME280;15244;49.088;11.886;2022-08-21T16:02:30;95688.03;;;28.66;31.45
27425;BME280;15244;49.088;11.886;2022-08-21T16:07:32;95684.78;;;28.84;31.35
27425;BME280;15244;49.088;11.886;2022-08-21T16:12:37;95693.97;;;28.96;30.05
27425;BME280;15244;49.088;11.886;2022-08-21T16:17:41;95684.84;;;29.07;30.84
27425;BME280;15244;49.088;11.886;2022-08-21T16:22:45;95675.91;;;29.14;30.82
27425;BME280;15244;49.088;11.886;2022-08-21T16:27:53;95681.28;;;29.17;30.87
27425;BME280;15244;49.088;11.886;2022-08-21T16:33:02;95679.78;;;29.22;30.59
27425;BME280;15244;49.088;11.886;2022-08-21T16:38:07;95670.81;;;29.18;30.75
27425;BME280;15244;49.088;11.886;2022-08-21T16:43:09;95666.22;;;29.21;30.62
27425;BME280;15244;49.088;11.886;2022-08-21T16:48:14;95667.25;;;29.23;30.61
27425;BME280;15244;49.088;11.886;2022-08-21T16:53:17;95662.66;;;29.14;30.59
27425;BME280;15244;49.088;11.886;2022-08-21T16:58:34;95660.63;;;29.15;30.54
27425;BME280;15244;49.088;11.886;2022-08-21T17:03:41;95665.69;;;29.16;30.73
27425;BME280;15244;49.088;11.886;2022-08-21T17:08:44;95662.41;;;29.24;30.96
27425;BME280;15244;49.088;11.886;2022-08-21T17:13:46;95666.50;;;29.28;30.49
27425;BME280;15244;49.088;11.886;2022-08-21T17:18:48;95670.06;;;29.34;30.66
27425;BME280;15244;49.088;11.886;2022-08-21T17:23:55;95668.25;;;29.37;30.21
27425;BME280;15244;49.088;11.886;2022-08-21T17:28:58;95668.03;;;29.46;30.62
27425;BME280;15244;49.088;11.886;2022-08-21T17:34:00;95668.28;;;29.54;30.61
27425;BME280;15244;49.088;11.886;2022-08-21T17:39:04;95664.19;;;29.49;30.37
27425;BME280;15244;49.088;11.886;2022-08-21T17:44:07;95658.59;;;29.32;30.66
27425;BME280;15244;49.088;11.886;2022-08-21T17:49:12;95661.66;;;29.12;31.06
27425;BME280;15244;49.088;11.886;2022-08-21T17:54:16;95677.38;;;28.87;31.06
27425;BME280;15244;49.088;11.886;2022-08-21T17:59:20;95675.75;;;28.52;31.54
27425;BME280;15244;49.088;11.886;2022-08-21T18:04:23;95676.84;;;28.17;31.10
27425;BME280;15244;49.088;11.886;2022-08-21T18:09:26;95673.38;;;27.91;31.76
27425;BME280;15244;49.088;11.886;2022-08-21T18:14:31;95673.22;;;27.68;32.25
27425;BME280;15244;49.088;11.886;2022-08-21T18:19:33;95683.25;;;27.49;32.26
27425;BME280;15244;49.088;11.886;2022-08-21T18:24:49;95683.81;;;27.27;32.42
27425;BME280;15244;49.088;11.886;2022-08-21T18:29:53;95688.97;;;27.08;32.23
27425;BME280;15244;49.088;11.886;2022-08-21T18:35:04;95690.53;;;26.88;32.09
27425;BME280;15244;49.088;11.886;2022-08-21T18:40:07;95689.81;;;26.67;31.95
27425;BME280;15244;49.088;11.886;2022-08-21T18:45:14;95700.09;;;26.55;31.89
27425;BME280;15244;49.088;11.886;2022-08-21T18:50:19;95697.09;;;26.38;31.32
27425;BME280;15244;49.088;11.886;2022-08-21T18:55:25;95702.44;;;26.22;31.87
27425;BME280;15244;49.088;11.886;2022-08-21T19:00:31;95696.16;;;26.06;32.05
27425;BME280;15244;49.088;11.886;2022-08-21T19:05:36;95695.22;;;25.94;32.12
27425;BME280;15244;49.088;11.886;2022-08-21T19:10:43;95695.50;;;25.82;32.19
27425;BME280;15244;49.088;11.886;2022-08-21T19:15:48;95699.38;;;25.69;32.35
27425;BME280;15244;49.088;11.886;2022-08-21T19:20:56;95707.88;;;25.60;32.37
27425;BME280;15244;49.088;11.886;2022-08-21T19:26:00;95701.66;;;25.50;32.57
27425;BME280;15244;49.088;11.886;2022-08-21T19:31:16;95703.56;;;25.44;32.75
27425;BME280;15244;49.088;11.886;2022-08-21T19:36:24;95703.47;;;25.39;32.81
27425;BME280;15244;49.088;11.886;2022-08-21T19:41:34;95699.06;;;25.32;32.82
27425;BME280;15244;49.088;11.886;2022-08-21T19:46:39;95707.31;;;25.26;33.16
27425;BME280;15244;49.088;11.886;2022-08-21T19:51:43;95697.91;;;25.24;33.43
27425;BME280;15244;49.088;11.886;2022-08-21T19:56:46;95699.06;;;25.17;33.03
27425;BME280;15244;49.088;11.886;2022-08-21T20:01:50;95690.09;;;25.13;33.37
27425;BME280;15244;49.088;11.886;2022-08-21T20:06:52;95693.06;;;25.09;33.45
27425;BME280;15244;49.088;11.886;2022-08-21T20:11:56;95700.38;;;25.07;33.93
27425;BME280;15244;49.088;11.886;2022-08-21T20:17:09;95695.94;;;25.00;34.24
27425;BME280;15244;49.088;11.886;2022-08-21T20:22:13;95687.50;;;24.95;34.82
27425;BME280;15244;49.088;11.886;2022-08-21T20:27:22;95683.81;;;24.88;34.67
27425;BME280;15244;49.088;11.886;2022-08-21T20:32:25;95683.72;;;24.83;35.00
27425;BME280;15244;49.088;11.886;2022-08-21T20:37:27;95692.75;;;24.78;34.92
27425;BME280;15244;49.088;11.886;2022-08-21T20:42:46;95685.50;;;24.71;35.17
27425;BME280;15244;49.088;11.886;2022-08-21T20:47:50;95686.38;;;24.62;35.32
27425;BME280;15244;49.088;11.886;2022-08-21T20:53:01;95711.06;;;24.55;35.64
27425;BME280;15244;49.088;11.886;2022-08-21T20:58:08;95713.91;;;24.46;36.15
27425;BME280;15244;49.088;11.886;2022-08-21T21:03:20;95720.28;;;24.37;36.53
27425;BME280;15244;49.088;11.886;2022-08-21T21:08:45;95721.59;;;24.27;36.65
27425;BME280;15244;49.088;11.886;2022-08-21T21:13:59;95716.56;;;24.16;37.00
27425;BME280;15244;49.088;11.886;2022-08-21T21:24:31;95721.00;;;23.98;37.27
27425;BME280;15244;49.088;11.886;2022-08-21T21:29:50;95720.56;;;23.91;37.43
27425;BME280;15244;49.088;11.886;2022-08-21T21:34:55;95734.38;;;23.85;37.89
27425;BME280;15244;49.088;11.886;2022-08-21T21:45:31;95735.78;;;23.71;38.27
27425;BME280;15244;49.088;11.886;2022-08-21T21:50:57;95736.09;;;23.64;38.41
27425;BME280;15244;49.088;11.886;2022-08-21T21:56:12;95735.97;;;23.58;39.11
27425;BME280;15244;49.088;11.886;2022-08-21T22:01:35;95737.06;;;23.52;39.22
27425;BME280;15244;49.088;11.886;2022-08-21T22:06:59;95739.41;;;23.44;39.49
27425;BME280;15244;49.088;11.886;2022-08-21T22:12:40;95743.63;;;23.40;39.59
27425;BME280;15244;49.088;11.886;2022-08-21T22:18:08;95747.00;;;23.34;40.20
27425;BME280;15244;49.088;11.886;2022-08-21T22:23:16;95745.16;;;23.31;40.41
27425;BME280;15244;49.088;11.886;2022-08-21T22:28:22;95741.81;;;23.27;40.38
27425;BME280;15244;49.088;11.886;2022-08-21T22:33:27;95740.41;;;23.23;40.68
27425;BME280;15244;49.088;11.886;2022-08-21T22:38:33;95740.56;;;23.19;40.97
27425;BME280;15244;49.088;11.886;2022-08-21T22:44:30;95756.34;;;23.13;40.93
27425;BME280;15244;49.088;11.886;2022-08-21T22:49:35;95750.47;;;23.11;41.06
27425;BME280;15244;49.088;11.886;2022-08-21T22:54:44;95750.63;;;23.07;41.28
27425;BME280;15244;49.088;11.886;2022-08-21T23:00:11;95757.59;;;23.03;41.26
27425;BME280;15244;49.088;11.886;2022-08-21T23:05:18;95752.19;;;22.99;41.58
27425;BME280;15244;49.088;11.886;2022-08-21T23:10:27;95750.78;;;22.94;41.39
27425;BME280;15244;49.088;11.886;2022-08-21T23:15:34;95750.47;;;22.92;41.68
27425;BME280;15244;49.088;11.886;2022-08-21T23:20:56;95749.53;;;22.86;41.41
27425;BME280;15244;49.088;11.886;2022-08-21T23:26:24;95752.94;;;22.81;41.70
27425;BME280;15244;49.088;11.886;2022-08-21T23:37:06;95746.31;;;22.69;41.85
27425;BME280;15244;49.088;11.886;2022-08-21T23:43:16;95756.19;;;22.61;42.05
27425;BME280;15244;49.088;11.886;2022-08-21T23:53:48;95746.00;;;22.49;42.12
27425;BME280;15244;49.088;11.886;2022-08-21T23:59:23;95757.22;;;22.45;42.35
